Time;durP1;ratioP1;P1;durP2;ratioP2;P2;SDS_P1;SDS_P2;PMS_P1;PMS_P2;Temp;Humidity;BMP_temperature;BMP_pressure;BME280_temperature;BME280_humidity;BME280_pressure;Samples;Min_cycle;Max_cycle;Signal;HPM_P1;HPM_P2
2023/04/04 00:00:14;;;;;;;1.20;1.10;;;;;;;;;;10615649;27;20409;-84
2023/04/04 00:05:17;;;;;;;1.85;1.23;;;;;;;;;;10601853;27;20426;-84
2023/04/04 00:10:19;;;;;;;1.65;1.02;;;;;;;;;;10606444;28;20424;-84
2023/04/04 00:15:21;;;;;;;1.37;1.20;;;;;;;;;;10622350;27;20392;-84
2023/04/04 00:20:25;;;;;;;2.08;1.20;;;;;;;;;;10611922;27;20415;-84
2023/04/04 00:25:27;;;;;;;2.70;1.33;;;;;;;;;;10630383;22;20972;-84
2023/04/04 00:30:29;;;;;;;2.65;1.30;;;;;;;;;;10561500;28;20434;-84
2023/04/04 00:35:32;;;;;;;2.45;1.45;;;;;;;;;;10560907;28;20406;-84
2023/04/04 00:40:40;;;;;;;1.30;1.20;;;;;;;;;;10559203;28;20400;-84
2023/04/04 00:45:43;;;;;;;3.53;1.65;;;;;;;;;;10563990;27;20415;-84
2023/04/04 00:50:46;;;;;;;2.53;1.33;;;;;;;;;;10550924;28;20453;-83
2023/04/04 00:55:48;;;;;;;3.25;1.40;;;;;;;;;;10559120;28;20406;-83
2023/04/04 01:00:50;;;;;;;2.28;1.60;;;;;;;;;;10553171;28;20404;-84
2023/04/04 01:05:54;;;;;;;2.60;1.83;;;;;;;;;;10549217;28;20426;-84
2023/04/04 01:10:56;;;;;;;2.72;1.70;;;;;;;;;;10557140;28;20764;-85
2023/04/04 01:15:58;;;;;;;2.57;1.70;;;;;;;;;;10559329;28;20390;-84
2023/04/04 01:21:05;;;;;;;4.00;1.70;;;;;;;;;;10558011;28;20958;-84
2023/04/04 01:26:08;;;;;;;2.63;1.50;;;;;;;;;;10555703;28;20499;-84
2023/04/04 01:31:14;;;;;;;2.23;1.40;;;;;;;;;;10559137;28;20836;-85
2023/04/04 01:36:22;;;;;;;3.13;1.75;;;;;;;;;;10555817;28;20404;-84
2023/04/04 01:41:27;;;;;;;1.80;1.67;;;;;;;;;;10558211;28;20874;-84
2023/04/04 01:46:30;;;;;;;4.35;1.90;;;;;;;;;;10559105;28;20442;-84
2023/04/04 01:51:32;;;;;;;2.25;1.95;;;;;;;;;;10557244;28;20895;-84
2023/04/04 01:56:35;;;;;;;2.45;1.70;;;;;;;;;;10556154;28;20478;-84
2023/04/04 02:01:37;;;;;;;2.90;2.10;;;;;;;;;;10557144;28;20395;-84
2023/04/04 02:06:40;;;;;;;3.50;1.80;;;;;;;;;;10554666;28;20420;-84
2023/04/04 02:11:43;;;;;;;3.00;2.00;;;;;;;;;;10553657;28;20802;-84
2023/04/04 02:16:45;;;;;;;1.77;1.60;;;;;;;;;;10556536;28;20402;-84
2023/04/04 02:21:47;;;;;;;2.60;1.80;;;;;;;;;;10550710;28;20397;-84
2023/04/04 02:26:50;;;;;;;2.13;1.70;;;;;;;;;;10552316;28;20418;-84
2023/04/04 02:31:52;;;;;;;2.38;1.67;;;;;;;;;;10551050;28;20404;-84
2023/04/04 02:36:54;;;;;;;3.17;1.65;;;;;;;;;;10550233;28;20781;-84
2023/04/04 02:41:57;;;;;;;3.38;1.90;;;;;;;;;;10553853;28;20488;-84
2023/04/04 02:46:59;;;;;;;2.50;2.10;;;;;;;;;;10553614;28;20426;-84
2023/04/04 02:52:01;;;;;;;2.83;1.90;;;;;;;;;;10555001;28;20396;-84
2023/04/04 02:57:04;;;;;;;3.20;1.93;;;;;;;;;;10552993;28;20406;-84
2023/04/04 03:02:06;;;;;;;2.30;1.80;;;;;;;;;;10552883;28;20448;-83
2023/04/04 03:07:08;;;;;;;2.38;1.70;;;;;;;;;;10532139;28;20427;-83
2023/04/04 03:12:11;;;;;;;2.45;2.10;;;;;;;;;;10536551;28;20486;-83
2023/04/04 03:17:14;;;;;;;2.72;2.00;;;;;;;;;;10554477;28;20421;-83
2023/04/04 03:22:16;;;;;;;2.60;1.90;;;;;;;;;;10551960;28;20405;-83
2023/04/04 03:27:19;;;;;;;2.30;2.10;;;;;;;;;;10552012;28;20518;-83
2023/04/04 03:32:21;;;;;;;3.50;1.80;;;;;;;;;;10552351;28;20948;-83
2023/04/04 03:37:23;;;;;;;2.77;2.00;;;;;;;;;;10551023;28;20425;-83
2023/04/04 03:42:26;;;;;;;2.80;2.00;;;;;;;;;;10553448;28;20392;-83
2023/04/04 03:47:28;;;;;;;2.70;1.90;;;;;;;;;;10552752;28;20424;-83
2023/04/04 03:52:30;;;;;;;2.00;1.80;;;;;;;;;;10563417;28;20449;-83
2023/04/04 03:57:34;;;;;;;3.53;1.90;;;;;;;;;;10558924;28;20487;-83
2023/04/04 04:02:35;;;;;;;1.70;1.60;;;;;;;;;;10561621;28;20528;-84
2023/04/04 04:07:37;;;;;;;3.90;1.95;;;;;;;;;;10559415;28;20454;-84
2023/04/04 04:12:41;;;;;;;3.55;2.10;;;;;;;;;;10561494;28;20485;-84
2023/04/04 04:17:42;;;;;;;4.70;2.00;;;;;;;;;;10560172;28;20403;-83
2023/04/04 04:22:46;;;;;;;3.47;2.00;;;;;;;;;;10559426;28;20486;-83
2023/04/04 04:27:49;;;;;;;2.43;2.00;;;;;;;;;;10560088;28;20833;-84
2023/04/04 04:32:51;;;;;;;2.00;1.80;;;;;;;;;;10559487;28;20909;-84
2023/04/04 04:37:55;;;;;;;3.15;1.90;;;;;;;;;;10561861;28;20965;-84
2023/04/04 04:42:58;;;;;;;2.60;2.10;;;;;;;;;;10557676;28;20561;-84
2023/04/04 04:48:00;;;;;;;2.40;1.80;;;;;;;;;;10537600;28;20428;-83
2023/04/04 04:53:02;;;;;;;2.45;2.00;;;;;;;;;;10537641;28;20777;-83
2023/04/04 04:58:05;;;;;;;5.38;2.25;;;;;;;;;;10553238;28;20413;-83
2023/04/04 05:03:07;;;;;;;4.05;2.15;;;;;;;;;;10555867;28;20459;-84
2023/04/04 05:08:09;;;;;;;4.10;2.10;;;;;;;;;;10561035;28;20924;-84
2023/04/04 05:13:13;;;;;;;3.00;2.08;;;;;;;;;;10574239;27;20407;-83
2023/04/04 05:18:15;;;;;;;6.60;2.20;;;;;;;;;;10576157;27;20446;-84
2023/04/04 05:23:16;;;;;;;2.65;1.80;;;;;;;;;;10563462;27;20417;-83
2023/04/04 05:28:20;;;;;;;2.00;1.80;;;;;;;;;;10570142;28;20415;-82
2023/04/04 05:33:22;;;;;;;4.55;2.15;;;;;;;;;;10570815;28;20446;-84
2023/04/04 05:38:24;;;;;;;4.90;2.10;;;;;;;;;;10563826;28;20417;-82
2023/04/04 05:43:27;;;;;;;5.00;2.30;;;;;;;;;;10556819;28;20401;-83
2023/04/04 05:48:29;;;;;;;5.55;2.20;;;;;;;;;;10550583;28;20973;-83
2023/04/04 05:53:31;;;;;;;3.85;2.10;;;;;;;;;;10552740;28;20480;-83
2023/04/04 05:58:35;;;;;;;2.83;1.90;;;;;;;;;;10552358;28;20496;-83
2023/04/04 06:03:37;;;;;;;18.90;3.70;;;;;;;;;;10553611;28;20954;-83
2023/04/04 06:08:39;;;;;;;2.40;1.70;;;;;;;;;;10554935;28;20909;-82
2023/04/04 06:13:42;;;;;;;8.80;2.20;;;;;;;;;;10554063;28;20402;-83
2023/04/04 06:18:44;;;;;;;3.00;1.70;;;;;;;;;;10562793;27;20412;-83
2023/04/04 06:23:46;;;;;;;1.80;1.40;;;;;;;;;;10553355;28;20404;-83
2023/04/04 06:28:49;;;;;;;2.13;1.50;;;;;;;;;;10556271;28;20452;-83
2023/04/04 06:33:51;;;;;;;1.75;1.35;;;;;;;;;;10532689;28;20388;-83
2023/04/04 06:38:53;;;;;;;2.35;1.48;;;;;;;;;;10532929;28;20428;-84
2023/04/04 06:43:56;;;;;;;11.85;3.10;;;;;;;;;;10552906;28;20430;-83
2023/04/04 06:48:58;;;;;;;2.47;1.88;;;;;;;;;;10554056;28;20415;-83
2023/04/04 06:54:01;;;;;;;2.95;1.75;;;;;;;;;;10554266;28;20882;-83
2023/04/04 06:59:04;;;;;;;5.00;1.60;;;;;;;;;;10554329;28;20442;-83
2023/04/04 07:04:06;;;;;;;2.13;1.70;;;;;;;;;;10553060;28;20431;-83
2023/04/04 07:09:08;;;;;;;2.03;1.60;;;;;;;;;;10554638;28;20685;-83
2023/04/04 07:14:11;;;;;;;2.35;1.80;;;;;;;;;;10552457;28;20397;-83
2023/04/04 07:19:13;;;;;;;2.33;1.60;;;;;;;;;;10554784;28;20433;-84
2023/04/04 07:24:15;;;;;;;3.40;2.22;;;;;;;;;;10532416;28;20416;-83
2023/04/04 07:29:18;;;;;;;4.10;1.77;;;;;;;;;;10539491;28;20486;-83
2023/04/04 07:34:20;;;;;;;4.75;2.10;;;;;;;;;;10552104;28;20416;-83
2023/04/04 07:39:22;;;;;;;3.73;1.67;;;;;;;;;;10553258;28;20498;-83
2023/04/04 07:44:25;;;;;;;3.20;1.70;;;;;;;;;;10551856;28;20458;-83
2023/04/04 07:49:27;;;;;;;3.80;2.10;;;;;;;;;;10552079;28;20754;-83
2023/04/04 07:54:29;;;;;;;2.10;1.57;;;;;;;;;;10553167;28;20454;-84
2023/04/04 07:59:32;;;;;;;2.15;1.50;;;;;;;;;;10551922;28;20395;-83
2023/04/04 08:04:34;;;;;;;1.80;1.30;;;;;;;;;;10553275;28;20511;-84
2023/04/04 08:09:36;;;;;;;3.58;1.50;;;;;;;;;;10551186;28;20453;-83
2023/04/04 08:14:39;;;;;;;3.38;1.80;;;;;;;;;;10553920;28;20422;-83
2023/04/04 08:19:41;;;;;;;2.88;1.60;;;;;;;;;;10531774;28;20400;-84
2023/04/04 08:24:43;;;;;;;2.33;1.80;;;;;;;;;;10530089;28;20473;-84
2023/04/04 08:29:47;;;;;;;2.97;1.57;;;;;;;;;;10549506;28;20395;-82
2023/04/04 08:34:49;;;;;;;3.38;1.45;;;;;;;;;;10554995;28;20891;-83
2023/04/04 08:39:50;;;;;;;3.90;1.67;;;;;;;;;;10559620;28;20477;-83
2023/04/04 08:44:54;;;;;;;2.33;1.53;;;;;;;;;;10559995;28;20408;-83
2023/04/04 08:50:00;;;;;;;2.55;1.42;;;;;;;;;;10558228;28;20405;-84
2023/04/04 08:55:04;;;;;;;3.95;1.48;;;;;;;;;;10560628;28;20489;-83
2023/04/04 09:00:09;;;;;;;4.53;1.77;;;;;;;;;;10537559;28;20396;-83
2023/04/04 09:05:12;;;;;;;3.78;1.70;;;;;;;;;;10541628;28;20455;-84
2023/04/04 09:10:14;;;;;;;4.15;2.13;;;;;;;;;;10558368;28;20425;-83
2023/04/04 09:15:18;;;;;;;2.33;2.00;;;;;;;;;;10559062;28;20488;-83
2023/04/04 09:20:40;;;;;;;2.67;1.63;;;;;;;;;;10557934;28;20491;-83
2023/04/04 09:25:47;;;;;;;3.13;1.80;;;;;;;;;;10557500;28;20443;-83
2023/04/04 09:30:52;;;;;;;6.20;3.90;;;;;;;;;;10556798;28;20921;-84
2023/04/04 09:35:57;;;;;;;2.47;1.70;;;;;;;;;;10558344;28;20409;-83
2023/04/04 09:40:59;;;;;;;4.47;2.22;;;;;;;;;;10555050;28;20746;-83
2023/04/04 09:46:04;;;;;;;5.25;2.38;;;;;;;;;;10556799;28;20411;-84
2023/04/04 09:51:07;;;;;;;4.55;1.90;;;;;;;;;;10555758;28;20411;-83
2023/04/04 09:56:09;;;;;;;3.75;2.42;;;;;;;;;;10557394;28;20410;-84
2023/04/04 10:01:14;;;;;;;4.25;1.90;;;;;;;;;;10556400;28;20491;-83
2023/04/04 10:06:16;;;;;;;4.45;2.80;;;;;;;;;;10555563;28;20724;-83
2023/04/04 10:11:29;;;;;;;5.15;1.70;;;;;;;;;;10557262;28;20475;-84
2023/04/04 10:16:37;;;;;;;2.67;1.90;;;;;;;;;;10534570;28;20480;-84
2023/04/04 10:21:38;;;;;;;2.60;1.50;;;;;;;;;;10535172;28;20775;-84
2023/04/04 10:26:40;;;;;;;2.63;1.80;;;;;;;;;;10551655;28;20884;-84
2023/04/04 10:31:46;;;;;;;4.25;1.85;;;;;;;;;;10553824;28;20770;-84
2023/04/04 10:36:53;;;;;;;2.60;1.70;;;;;;;;;;10555417;28;20948;-84
2023/04/04 10:41:56;;;;;;;3.40;1.90;;;;;;;;;;10533654;28;20517;-85
2023/04/04 10:47:05;;;;;;;4.60;1.80;;;;;;;;;;10534432;28;20893;-84
2023/04/04 10:52:08;;;;;;;3.35;1.92;;;;;;;;;;10554089;28;20490;-84
2023/04/04 10:57:10;;;;;;;3.88;2.08;;;;;;;;;;10555760;28;20445;-84
2023/04/04 11:02:14;;;;;;;2.58;1.90;;;;;;;;;;10553302;28;20515;-84
2023/04/04 11:07:17;;;;;;;3.03;1.95;;;;;;;;;;10555875;28;20416;-84
2023/04/04 11:12:26;;;;;;;2.22;1.80;;;;;;;;;;10533139;28;20483;-83
2023/04/04 11:17:52;;;;;;;3.50;1.90;;;;;;;;;;10541444;28;20419;-83
2023/04/04 11:23:03;;;;;;;5.43;1.95;;;;;;;;;;10559242;28;20499;-83
2023/04/04 11:28:25;;;;;;;2.57;1.73;;;;;;;;;;10562698;28;20419;-82
2023/04/04 11:33:31;;;;;;;2.08;1.83;;;;;;;;;;10528390;28;20446;-83
2023/04/04 11:38:33;;;;;;;4.15;1.80;;;;;;;;;;10540490;28;20414;-83
2023/04/04 11:43:45;;;;;;;4.57;2.08;;;;;;;;;;10552922;28;20399;-83
2023/04/04 11:48:48;;;;;;;6.05;1.92;;;;;;;;;;10553867;28;20970;-83
2023/04/04 11:53:52;;;;;;;4.70;2.00;;;;;;;;;;10556400;28;20415;-84
2023/04/04 11:58:54;;;;;;;3.07;1.97;;;;;;;;;;10556196;28;20647;-83
2023/04/04 12:04:00;;;;;;;3.03;1.88;;;;;;;;;;10549106;28;20814;-84
2023/04/04 12:09:03;;;;;;;5.15;2.13;;;;;;;;;;10557652;28;20422;-83
2023/04/04 12:14:06;;;;;;;3.38;2.20;;;;;;;;;;10566821;27;20889;-83
2023/04/04 12:19:09;;;;;;;2.63;2.30;;;;;;;;;;10565829;28;20406;-83
2023/04/04 12:24:12;;;;;;;2.83;2.23;;;;;;;;;;10568987;28;20406;-83
2023/04/04 12:29:16;;;;;;;4.57;2.30;;;;;;;;;;10574395;28;20418;-83
2023/04/04 12:34:22;;;;;;;4.30;2.07;;;;;;;;;;10575751;27;20449;-82
2023/04/04 12:39:26;;;;;;;2.78;2.20;;;;;;;;;;10575726;28;20487;-83
2023/04/04 12:44:30;;;;;;;2.97;2.30;;;;;;;;;;10563963;28;20420;-83
2023/04/04 12:49:38;;;;;;;3.60;2.10;;;;;;;;;;10567951;28;20902;-83
2023/04/04 12:54:41;;;;;;;4.20;2.30;;;;;;;;;;10562068;28;20401;-82
2023/04/04 12:59:46;;;;;;;4.45;2.28;;;;;;;;;;10566974;28;20521;-83
2023/04/04 13:04:53;;;;;;;3.15;2.05;;;;;;;;;;10560337;28;20520;-82
2023/04/04 13:09:58;;;;;;;2.53;2.00;;;;;;;;;;10568757;28;20500;-83
2023/04/04 13:15:00;;;;;;;3.78;2.13;;;;;;;;;;10564614;28;20428;-83
2023/04/04 13:20:04;;;;;;;3.37;2.20;;;;;;;;;;10563511;28;20435;-83
2023/04/04 13:25:07;;;;;;;3.80;2.70;;;;;;;;;;10556323;28;20755;-81
2023/04/04 13:30:10;;;;;;;3.77;2.33;;;;;;;;;;10567853;28;20399;-84
2023/04/04 13:35:14;;;;;;;2.58;2.38;;;;;;;;;;10561023;28;20494;-83
2023/04/04 13:40:16;;;;;;;3.55;2.35;;;;;;;;;;10560781;28;20403;-82
2023/04/04 13:45:18;;;;;;;2.63;2.22;;;;;;;;;;10557266;28;20909;-84
2023/04/04 13:50:21;;;;;;;4.72;2.40;;;;;;;;;;10557700;28;20406;-84
2023/04/04 13:55:23;;;;;;;2.53;2.33;;;;;;;;;;10548352;28;20412;-84
2023/04/04 14:00:25;;;;;;;3.17;2.40;;;;;;;;;;10560813;28;20870;-84
2023/04/04 14:05:28;;;;;;;3.00;2.70;;;;;;;;;;10553771;28;20426;-84
2023/04/04 14:10:30;;;;;;;3.15;2.80;;;;;;;;;;10559539;28;20493;-84
2023/04/04 14:15:33;;;;;;;2.50;2.30;;;;;;;;;;10558548;28;20903;-83
2023/04/04 14:20:37;;;;;;;3.10;2.60;;;;;;;;;;10559878;28;20412;-83
2023/04/04 14:25:38;;;;;;;3.92;2.60;;;;;;;;;;10554856;28;20408;-84
2023/04/04 14:30:41;;;;;;;4.90;2.55;;;;;;;;;;10558441;28;20407;-83
2023/04/04 14:35:44;;;;;;;4.70;2.70;;;;;;;;;;10555433;28;20742;-84
2023/04/04 14:40:47;;;;;;;4.18;2.58;;;;;;;;;;10557161;28;20443;-83
2023/04/04 14:45:48;;;;;;;8.18;2.90;;;;;;;;;;10552269;28;20406;-84
2023/04/04 14:50:52;;;;;;;5.65;2.40;;;;;;;;;;10556007;28;20779;-84
2023/04/04 14:55:54;;;;;;;5.15;2.60;;;;;;;;;;10553147;28;20410;-84
2023/04/04 15:00:55;;;;;;;3.03;2.50;;;;;;;;;;10557841;28;20394;-84
2023/04/04 15:05:59;;;;;;;3.97;2.65;;;;;;;;;;10567749;28;20415;-84
2023/04/04 15:11:01;;;;;;;4.87;2.90;;;;;;;;;;10561330;28;20402;-84
2023/04/04 15:16:03;;;;;;;7.40;3.30;;;;;;;;;;10555367;28;20778;-84
2023/04/04 15:21:06;;;;;;;5.20;2.58;;;;;;;;;;10559732;28;20451;-84
2023/04/04 15:26:09;;;;;;;3.95;2.60;;;;;;;;;;10548868;28;20438;-84
2023/04/04 15:31:12;;;;;;;4.27;2.50;;;;;;;;;;10552770;28;20397;-83
2023/04/04 15:36:16;;;;;;;3.93;2.40;;;;;;;;;;10538675;28;20409;-82
2023/04/04 15:41:18;;;;;;;5.23;2.87;;;;;;;;;;10545254;28;20476;-83
2023/04/04 15:46:20;;;;;;;8.93;2.90;;;;;;;;;;10549073;28;20420;-83
2023/04/04 15:51:24;;;;;;;5.05;2.50;;;;;;;;;;10546807;28;20424;-83
2023/04/04 15:56:26;;;;;;;4.82;2.30;;;;;;;;;;10549882;28;20406;-84
2023/04/04 16:01:28;;;;;;;8.60;2.33;;;;;;;;;;10549849;28;20467;-83
2023/04/04 16:06:31;;;;;;;6.38;2.72;;;;;;;;;;10548782;28;20432;-83
2023/04/04 16:11:33;;;;;;;3.73;2.40;;;;;;;;;;10550938;28;20398;-83
2023/04/04 16:16:35;;;;;;;5.53;2.63;;;;;;;;;;10557069;28;20463;-82
2023/04/04 16:21:40;;;;;;;4.55;2.60;;;;;;;;;;10531834;28;20443;-84
2023/04/04 16:26:46;;;;;;;5.05;2.33;;;;;;;;;;10482712;28;1844556;-84
2023/04/04 16:31:48;;;;;;;5.93;2.35;;;;;;;;;;10551678;28;20486;-82
2023/04/04 16:36:51;;;;;;;8.00;3.95;;;;;;;;;;10555696;28;20485;-83
2023/04/04 16:41:53;;;;;;;8.07;4.38;;;;;;;;;;10557336;28;20405;-82
2023/04/04 16:46:55;;;;;;;9.05;4.05;;;;;;;;;;10563418;28;20422;-83
2023/04/04 16:51:58;;;;;;;2.90;2.27;;;;;;;;;;10566288;28;20395;-83
2023/04/04 16:57:00;;;;;;;5.88;2.85;;;;;;;;;;10565160;27;20422;-82
2023/04/04 17:02:04;;;;;;;4.53;2.50;;;;;;;;;;10565035;28;20386;-83
2023/04/04 17:07:07;;;;;;;3.92;2.30;;;;;;;;;;10534413;28;20867;-83
2023/04/04 17:12:09;;;;;;;4.53;2.30;;;;;;;;;;10535682;27;20407;-83
2023/04/04 17:17:11;;;;;;;4.00;2.20;;;;;;;;;;10556435;28;20514;-84
2023/04/04 17:22:15;;;;;;;2.92;2.20;;;;;;;;;;10548598;28;20499;-83
2023/04/04 17:27:17;;;;;;;8.68;2.90;;;;;;;;;;10543669;28;20424;-82
2023/04/04 17:32:19;;;;;;;4.60;2.40;;;;;;;;;;10536889;28;20416;-81
2023/04/04 17:37:22;;;;;;;4.65;2.42;;;;;;;;;;10538064;28;20462;-82
2023/04/04 17:42:24;;;;;;;3.08;2.22;;;;;;;;;;10537906;28;20405;-82
2023/04/04 17:47:26;;;;;;;5.83;2.57;;;;;;;;;;10538602;28;20446;-82
2023/04/04 17:52:30;;;;;;;3.73;2.50;;;;;;;;;;10536980;28;20404;-82
2023/04/04 17:57:33;;;;;;;4.33;2.93;;;;;;;;;;10539599;28;20413;-82
2023/04/04 18:02:35;;;;;;;6.82;3.03;;;;;;;;;;10546176;27;20404;-83
2023/04/04 18:07:38;;;;;;;7.73;4.43;;;;;;;;;;10552997;28;20511;-82
2023/04/04 18:12:40;;;;;;;6.87;3.87;;;;;;;;;;10546807;28;20402;-83
2023/04/04 18:17:41;;;;;;;11.43;7.80;;;;;;;;;;10554166;28;20493;-83
2023/04/04 18:22:46;;;;;;;9.83;8.20;;;;;;;;;;10556700;28;20458;-83
2023/04/04 18:27:47;;;;;;;9.37;5.60;;;;;;;;;;10554991;28;20436;-78
2023/04/04 18:32:50;;;;;;;8.52;4.88;;;;;;;;;;10553960;28;21130;-82
2023/04/04 18:37:53;;;;;;;8.60;4.80;;;;;;;;;;10553848;27;20469;-84
2023/04/04 18:42:56;;;;;;;6.88;4.43;;;;;;;;;;10551670;28;20451;-84
2023/04/04 18:47:58;;;;;;;12.25;6.30;;;;;;;;;;10544051;28;20416;-83
2023/04/04 18:53:01;;;;;;;11.00;6.83;;;;;;;;;;10547466;28;20536;-84
2023/04/04 18:58:03;;;;;;;11.43;7.18;;;;;;;;;;10546892;28;20414;-83
2023/04/04 19:03:06;;;;;;;10.50;5.32;;;;;;;;;;10547793;28;20434;-84
2023/04/04 19:08:12;;;;;;;8.90;5.35;;;;;;;;;;10546786;28;20450;-83
2023/04/04 19:13:14;;;;;;;9.00;4.95;;;;;;;;;;10544691;28;20457;-82
2023/04/04 19:18:16;;;;;;;8.95;4.80;;;;;;;;;;10544400;28;20411;-84
2023/04/04 19:23:20;;;;;;;8.30;5.28;;;;;;;;;;10547077;28;20474;-84
2023/04/04 19:28:22;;;;;;;13.67;6.77;;;;;;;;;;10549398;28;20491;-84
2023/04/04 19:33:26;;;;;;;10.40;7.18;;;;;;;;;;10550916;28;20435;-83
2023/04/04 19:38:32;;;;;;;9.33;6.80;;;;;;;;;;10554586;28;20436;-83
2023/04/04 19:43:33;;;;;;;12.32;7.03;;;;;;;;;;10548324;28;20414;-84
2023/04/04 19:48:54;;;;;;;12.60;7.85;;;;;;;;;;10544138;28;20402;-82
2023/04/04 19:53:58;;;;;;;11.10;6.90;;;;;;;;;;10546722;28;20399;-82
2023/04/04 19:59:02;;;;;;;14.52;8.93;;;;;;;;;;10544883;28;20444;-82
2023/04/04 20:04:08;;;;;;;18.27;11.10;;;;;;;;;;10559531;28;20495;-83
2023/04/04 20:09:31;;;;;;;15.43;10.75;;;;;;;;;;10558793;28;20423;-84
2023/04/04 20:14:33;;;;;;;15.25;10.98;;;;;;;;;;10550724;28;20524;-85
2023/04/04 20:19:35;;;;;;;14.67;10.50;;;;;;;;;;10553876;28;20823;-84
2023/04/04 20:24:41;;;;;;;17.80;11.02;;;;;;;;;;10556305;28;20446;-84
2023/04/04 20:29:43;;;;;;;17.33;10.88;;;;;;;;;;10560521;28;20452;-84
2023/04/04 20:34:45;;;;;;;17.38;10.90;;;;;;;;;;10559773;28;20406;-83
2023/04/04 20:39:52;;;;;;;14.88;10.73;;;;;;;;;;10564837;28;20411;-84
2023/04/04 20:44:55;;;;;;;16.48;10.90;;;;;;;;;;10555104;28;20456;-84
2023/04/04 20:49:57;;;;;;;16.20;10.03;;;;;;;;;;10561940;28;20439;-84
2023/04/04 20:55:02;;;;;;;16.65;11.25;;;;;;;;;;10563498;28;20412;-84
2023/04/04 21:00:26;;;;;;;19.20;12.38;;;;;;;;;;10564941;28;20411;-83
2023/04/04 21:05:30;;;;;;;21.52;12.68;;;;;;;;;;10563355;28;20406;-84
2023/04/04 21:10:49;;;;;;;19.70;13.00;;;;;;;;;;10566755;28;20802;-83
2023/04/04 21:15:51;;;;;;;18.60;11.45;;;;;;;;;;10553795;28;20410;-84
2023/04/04 21:21:17;;;;;;;15.83;9.97;;;;;;;;;;10554130;28;20753;-84
2023/04/04 21:26:27;;;;;;;15.90;10.90;;;;;;;;;;10562319;28;20459;-84
2023/04/04 21:31:35;;;;;;;17.47;10.90;;;;;;;;;;10554948;27;20427;-84
2023/04/04 21:36:37;;;;;;;16.57;11.00;;;;;;;;;;10559430;28;20412;-83
2023/04/04 21:41:42;;;;;;;16.07;11.17;;;;;;;;;;10563235;28;21170;-83
2023/04/04 21:46:44;;;;;;;15.27;9.27;;;;;;;;;;10555617;28;20827;-84
2023/04/04 21:51:46;;;;;;;18.13;11.40;;;;;;;;;;10555499;28;20529;-84
2023/04/04 21:56:50;;;;;;;16.23;11.35;;;;;;;;;;10559464;28;20442;-83
2023/04/04 22:01:51;;;;;;;16.02;11.25;;;;;;;;;;10559268;28;20484;-83
2023/04/04 22:06:53;;;;;;;17.85;11.00;;;;;;;;;;10555582;28;20408;-83
2023/04/04 22:11:57;;;;;;;15.02;11.18;;;;;;;;;;10557023;28;20400;-84
2023/04/04 22:17:01;;;;;;;18.13;12.17;;;;;;;;;;10562258;28;20870;-84
2023/04/04 22:22:04;;;;;;;17.02;11.45;;;;;;;;;;10566130;27;20470;-84
2023/04/04 22:27:07;;;;;;;15.63;10.95;;;;;;;;;;10552856;28;20900;-84
2023/04/04 22:32:09;;;;;;;17.85;11.15;;;;;;;;;;10553132;28;20440;-83
2023/04/04 22:37:11;;;;;;;16.23;10.82;;;;;;;;;;10553626;28;20440;-84
2023/04/04 22:42:14;;;;;;;16.93;10.50;;;;;;;;;;10552906;28;20403;-83
2023/04/04 22:47:16;;;;;;;17.30;10.40;;;;;;;;;;10555866;28;20399;-83
2023/04/04 22:52:21;;;;;;;16.27;10.20;;;;;;;;;;10546632;28;20410;-83
2023/04/04 22:57:24;;;;;;;14.30;9.73;;;;;;;;;;10552815;28;20838;-83
2023/04/04 23:02:26;;;;;;;10.73;8.90;;;;;;;;;;10554132;28;20771;-84
2023/04/04 23:07:28;;;;;;;14.88;9.02;;;;;;;;;;10551827;28;20413;-84
2023/04/04 23:12:31;;;;;;;10.90;7.70;;;;;;;;;;10553987;28;20435;-84
2023/04/04 23:17:34;;;;;;;10.65;7.20;;;;;;;;;;10531409;28;20442;-84
2023/04/04 23:22:36;;;;;;;9.45;6.40;;;;;;;;;;10543975;28;20481;-84
2023/04/04 23:27:40;;;;;;;8.73;6.05;;;;;;;;;;10551210;28;20502;-85
2023/04/04 23:32:42;;;;;;;8.30;5.65;;;;;;;;;;10550466;28;20404;-84
2023/04/04 23:37:44;;;;;;;8.93;4.90;;;;;;;;;;10548166;28;20431;-84
2023/04/04 23:42:47;;;;;;;7.90;4.90;;;;;;;;;;10550565;28;20493;-84
2023/04/04 23:47:50;;;;;;;9.30;5.40;;;;;;;;;;10549449;28;20459;-84
2023/04/04 23:52:52;;;;;;;8.30;5.13;;;;;;;;;;10545658;28;20824;-84
2023/04/04 23:57:59;;;;;;;8.20;5.22;;;;;;;;;;10551452;28;20973;-84
